Big Bear Station Historical Data
Daily Summary for June 18, 2017 Units:  English    Metric   Both
« Previous Day
Next Day »
Daily Weekly Monthly Yearly Custom
  High: Low: Average:
Temperature: 93.4 °F 47.7 °F 69.4 °F
Dew Point: 52.7 °F 28.2 °F 37.9 °F
Humidity: 76 % 10 % 38 %
Wind Speed: 6.8 mph 0.0 mph 1.2 mph
Wind Gust: -999.0 mph - -
Wind:- - WSW
Pressure: 30.21 in 30.17 in -
Precipitation: 0.00 in    
Historical Graphs
 
 
Tabular Data for June 18, 2017
Time Temperature Dew Point Pressure Wind Wind Speed Wind Gust Humidity Rainfall Rate (Hourly)
00:12 54.0 °F 36.8 °F 30.20 in Calm   -999.0 mph 52 % 0 in
00:28 53.4 °F 33.7 °F 30.20 in Calm   -999.0 mph 47 % 0 in
00:43 52.9 °F 32.1 °F 30.20 in Calm   -999.0 mph 45 % 0 in
00:58 52.7 °F 34.6 °F 30.19 in Calm   -999.0 mph 50 % 0 in
01:13 52.3 °F 35.2 °F 30.19 in Calm   -999.0 mph 52 % 0 in
01:28 51.8 °F 30.6 °F 30.19 in Calm   -999.0 mph 44 % 0 in
01:44 51.3 °F 32.8 °F 30.19 in Calm   -999.0 mph 49 % 0 in
01:59 50.7 °F 31.2 °F 30.18 in Calm   -999.0 mph 47 % 0 in
02:14 50.5 °F 29.4 °F 30.18 in Calm   -999.0 mph 44 % 0 in
02:29 50.4 °F 28.7 °F 30.18 in Calm   -999.0 mph 43 % 0 in
02:45 50.2 °F 30.2 °F 30.18 in Calm   -999.0 mph 46 % 0 in
03:00 49.6 °F 31.7 °F 30.18 in Calm   -999.0 mph 50 % 0 in
03:15 49.5 °F 34.9 °F 30.18 in Calm   -999.0 mph 57 % 0 in
03:30 49.3 °F 35.6 °F 30.18 in Calm   -999.0 mph 59 % 0 in
03:45 49.1 °F 35.0 °F 30.18 in Calm   -999.0 mph 58 % 0 in
04:01 48.7 °F 35.4 °F 30.18 in Calm   -999.0 mph 60 % 0 in
04:16 48.2 °F 34.1 °F 30.18 in Calm   -999.0 mph 58 % 0 in
04:31 48.4 °F 36.0 °F 30.18 in Calm   -999.0 mph 62 % 0 in
04:46 48.4 °F 36.4 °F 30.18 in Calm   -999.0 mph 63 % 0 in
05:01 47.8 °F 37.8 °F 30.18 in Calm   -999.0 mph 68 % 0 in
05:17 47.8 °F 38.1 °F 30.18 in Calm   -999.0 mph 69 % 0 in
05:32 47.8 °F 38.9 °F 30.19 in Calm   -999.0 mph 71 % 0 in
05:47 47.7 °F 38.4 °F 30.19 in Calm   -999.0 mph 70 % 0 in
06:02 47.8 °F 38.9 °F 30.19 in Calm   -999.0 mph 71 % 0 in
06:17 47.7 °F 39.1 °F 30.20 in Calm   -999.0 mph 72 % 0 in
06:33 47.8 °F 39.9 °F 30.20 in Calm   -999.0 mph 74 % 0 in
06:48 48.9 °F 41.3 °F 30.20 in Calm   -999.0 mph 75 % 0 in
07:03 49.6 °F 41.7 °F 30.20 in Calm   -999.0 mph 74 % 0 in
07:18 50.7 °F 42.7 °F 30.20 in Calm   -999.0 mph 74 % 0 in
07:34 51.1 °F 43.1 °F 30.20 in Calm   -999.0 mph 74 % 0 in
07:49 52.2 °F 44.9 °F 30.20 in Calm   -999.0 mph 76 % 0 in
08:04 54.3 °F 46.5 °F 30.20 in Calm   -999.0 mph 75 % 0 in
08:19 56.7 °F 47.8 °F 30.20 in Calm   -999.0 mph 72 % 0 in
08:34 58.6 °F 46.9 °F 30.20 in Calm   -999.0 mph 65 % 0 in
08:50 61.5 °F 46.1 °F 30.20 in NW 2.7 mph -999.0 mph 57 % 0 in
09:05 63.1 °F 45.7 °F 30.20 in Calm   -999.0 mph 53 % 0 in
09:20 66.0 °F 42.9 °F 30.20 in NNW 1.1 mph -999.0 mph 43 % 0 in
09:35 68.5 °F 46.3 °F 30.20 in WNW 1.1 mph -999.0 mph 45 % 0 in
09:50 72.7 °F 44.2 °F 30.20 in ESE 1.1 mph -999.0 mph 36 % 0 in
10:06 76.5 °F 35.9 °F 30.19 in Calm   -999.0 mph 23 % 0 in
10:21 79.3 °F 36.0 °F 30.20 in NW 4.7 mph -999.0 mph 21 % 0 in
10:36 80.8 °F 36.0 °F 30.20 in WNW 4.7 mph -999.0 mph 20 % 0 in
10:51 81.1 °F 34.9 °F 30.20 in NNW 1.7 mph -999.0 mph 19 % 0 in
11:06 82.0 °F 35.7 °F 30.20 in North 3.7 mph -999.0 mph 19 % 0 in
11:23 84.4 °F 36.3 °F 30.20 in WNW 2.2 mph -999.0 mph 18 % 0 in
11:38 85.5 °F 37.2 °F 30.20 in North 3.2 mph -999.0 mph 18 % 0 in
11:53 86.4 °F 37.9 °F 30.19 in NNW 5.3 mph -999.0 mph 18 % 0 in
12:08 88.2 °F 37.9 °F 30.20 in NNE 6.3 mph -999.0 mph 17 % 0 in
12:23 88.7 °F 38.3 °F 30.19 in NE 3.7 mph -999.0 mph 17 % 0 in
12:39 88.9 °F 36.9 °F 30.19 in NNW 4.2 mph -999.0 mph 16 % 0 in
12:54 91.0 °F 37.0 °F 30.19 in West 3.7 mph -999.0 mph 15 % 0 in
13:10 90.1 °F 34.5 °F 30.19 in NNW 6.8 mph -999.0 mph 14 % 0 in
13:25 91.2 °F 35.4 °F 30.19 in NNW 1.7 mph -999.0 mph 14 % 0 in
13:40 92.3 °F 30.2 °F 30.18 in South 2.7 mph -999.0 mph 11 % 0 in
13:56 92.3 °F 30.2 °F 30.18 in East 2.2 mph -999.0 mph 11 % 0 in
14:11 92.7 °F 28.2 °F 30.18 in SSW 5.3 mph -999.0 mph 10 % 0 in
14:26 93.4 °F 28.7 °F 30.18 in SSW 1.7 mph -999.0 mph 10 % 0 in
14:41 92.7 °F 28.2 °F 30.18 in South 2.7 mph -999.0 mph 10 % 0 in
14:56 93.2 °F 30.9 °F 30.18 in South 4.7 mph -999.0 mph 11 % 0 in
15:12 92.5 °F 32.5 °F 30.18 in NNE 2.7 mph -999.0 mph 12 % 0 in
15:27 92.1 °F 30.1 °F 30.18 in SW 3.7 mph -999.0 mph 11 % 0 in
15:42 92.1 °F 32.2 °F 30.18 in West 2.7 mph -999.0 mph 12 % 0 in
15:57 92.5 °F 32.5 °F 30.18 in North 1.7 mph -999.0 mph 12 % 0 in
16:12 91.2 °F 33.5 °F 30.17 in East 2.2 mph -999.0 mph 13 % 0 in
16:28 91.2 °F 33.5 °F 30.17 in WSW 1.1 mph -999.0 mph 13 % 0 in
16:43 91.6 °F 35.7 °F 30.17 in ESE 1.1 mph -999.0 mph 14 % 0 in
16:58 91.8 °F 42.3 °F 30.17 in West 2.7 mph -999.0 mph 18 % 0 in
17:13 90.9 °F 44.3 °F 30.18 in NW 5.8 mph -999.0 mph 20 % 0 in
17:29 91.9 °F 42.4 °F 30.17 in NNW 2.2 mph -999.0 mph 18 % 0 in
17:44 91.2 °F 41.8 °F 30.17 in WNW 2.7 mph -999.0 mph 18 % 0 in
17:59 91.6 °F 42.1 °F 30.17 in SW 4.2 mph -999.0 mph 18 % 0 in
18:14 91.6 °F 46.2 °F 30.17 in Calm   -999.0 mph 21 % 0 in
18:29 91.8 °F 46.3 °F 30.17 in Calm   -999.0 mph 21 % 0 in
18:45 89.1 °F 52.7 °F 30.18 in Calm   -999.0 mph 29 % 0 in
19:00 87.3 °F 51.2 °F 30.18 in Calm   -999.0 mph 29 % 0 in
19:15 85.5 °F 45.7 °F 30.18 in Calm   -999.0 mph 25 % 0 in
19:30 80.2 °F 46.8 °F 30.18 in Calm   -999.0 mph 31 % 0 in
19:45 77.0 °F 44.9 °F 30.18 in Calm   -999.0 mph 32 % 0 in
20:01 72.1 °F 44.4 °F 30.18 in Calm   -999.0 mph 37 % 0 in
20:16 71.2 °F 44.3 °F 30.18 in Calm   -999.0 mph 38 % 0 in
20:31 69.6 °F 42.2 °F 30.19 in Calm   -999.0 mph 37 % 0 in
20:46 67.8 °F 39.1 °F 30.19 in Calm   -999.0 mph 35 % 0 in
21:01 66.7 °F 37.4 °F 30.19 in Calm   -999.0 mph 34 % 0 in
21:17 65.7 °F 38.0 °F 30.19 in Calm   -999.0 mph 36 % 0 in
21:32 64.4 °F 39.6 °F 30.20 in Calm   -999.0 mph 40 % 0 in
21:47 63.5 °F 40.0 °F 30.20 in Calm   -999.0 mph 42 % 0 in
22:02 62.6 °F 40.4 °F 30.20 in Calm   -999.0 mph 44 % 0 in
22:17 61.9 °F 40.3 °F 30.20 in Calm   -999.0 mph 45 % 0 in
22:33 61.0 °F 35.2 °F 30.20 in Calm   -999.0 mph 38 % 0 in
22:48 60.4 °F 36.0 °F 30.20 in Calm   -999.0 mph 40 % 0 in
23:03 59.7 °F 34.0 °F 30.20 in Calm   -999.0 mph 38 % 0 in
23:18 59.0 °F 34.7 °F 30.20 in Calm   -999.0 mph 40 % 0 in
23:33 58.5 °F 33.6 °F 30.20 in Calm   -999.0 mph 39 % 0 in
23:49 57.9 °F 34.9 °F 30.21 in Calm   -999.0 mph 42 % 0 in
Big Bear CA Weather
Compliments of Weather Underground - 1.5 mb